sensor_id;sensor_type;location;lat;lon;timestamp;temperature;humidity
26990;DHT22;14537;47.788;11.858;2022-09-01T00:01:31;14.00;99.90
26990;DHT22;14537;47.788;11.858;2022-09-01T00:03:58;14.00;99.90
26990;DHT22;14537;47.788;11.858;2022-09-01T00:06:28;14.00;99.90
26990;DHT22;14537;47.788;11.858;2022-09-01T00:08:55;14.00;99.90
26990;DHT22;14537;47.788;11.858;2022-09-01T00:11:22;14.00;99.90
26990;DHT22;14537;47.788;11.858;2022-09-01T00:13:49;14.00;99.90
26990;DHT22;14537;47.788;11.858;2022-09-01T00:16:15;14.00;99.90
26990;DHT22;14537;47.788;11.858;2022-09-01T00:18:42;14.00;99.90
26990;DHT22;14537;47.788;11.858;2022-09-01T00:21:10;13.90;99.90
26990;DHT22;14537;47.788;11.858;2022-09-01T00:23:36;13.90;99.90
26990;DHT22;14537;47.788;11.858;2022-09-01T00:26:02;13.90;99.90
26990;DHT22;14537;47.788;11.858;2022-09-01T00:28:28;13.90;99.90
26990;DHT22;14537;47.788;11.858;2022-09-01T00:30:53;13.90;99.90
26990;DHT22;14537;47.788;11.858;2022-09-01T00:33:19;13.90;99.90
26990;DHT22;14537;47.788;11.858;2022-09-01T00:35:44;13.80;99.90
26990;DHT22;14537;47.788;11.858;2022-09-01T00:38:10;13.80;99.90
26990;DHT22;14537;47.788;11.858;2022-09-01T00:40:35;13.90;99.90
26990;DHT22;14537;47.788;11.858;2022-09-01T00:43:16;13.80;99.90
26990;DHT22;14537;47.788;11.858;2022-09-01T00:45:43;13.90;99.90
26990;DHT22;14537;47.788;11.858;2022-09-01T00:48:08;13.80;99.90
26990;DHT22;14537;47.788;11.858;2022-09-01T00:50:34;13.80;99.90
26990;DHT22;14537;47.788;11.858;2022-09-01T00:53:00;13.90;99.90
26990;DHT22;14537;47.788;11.858;2022-09-01T00:55:30;13.80;99.90
26990;DHT22;14537;47.788;11.858;2022-09-01T00:57:57;13.80;99.90
26990;DHT22;14537;47.788;11.858;2022-09-01T01:00:25;13.80;99.90
26990;DHT22;14537;47.788;11.858;2022-09-01T01:02:51;13.80;99.90
26990;DHT22;14537;47.788;11.858;2022-09-01T01:05:21;13.80;99.90
26990;DHT22;14537;47.788;11.858;2022-09-01T01:07:47;13.80;99.90
26990;DHT22;14537;47.788;11.858;2022-09-01T01:10:15;13.80;99.90
26990;DHT22;14537;47.788;11.858;2022-09-01T01:12:42;13.90;99.90
26990;DHT22;14537;47.788;11.858;2022-09-01T01:15:09;13.80;99.90
26990;DHT22;14537;47.788;11.858;2022-09-01T01:17:35;13.90;99.90
26990;DHT22;14537;47.788;11.858;2022-09-01T01:20:00;13.90;99.90
26990;DHT22;14537;47.788;11.858;2022-09-01T01:30:30;13.80;99.90
26990;DHT22;14537;47.788;11.858;2022-09-01T01:32:59;13.80;99.90
26990;DHT22;14537;47.788;11.858;2022-09-01T01:35:26;13.80;99.90
26990;DHT22;14537;47.788;11.858;2022-09-01T01:37:52;13.80;99.90
26990;DHT22;14537;47.788;11.858;2022-09-01T01:40:19;13.80;99.90
26990;DHT22;14537;47.788;11.858;2022-09-01T01:42:47;13.80;99.90
26990;DHT22;14537;47.788;11.858;2022-09-01T01:45:15;13.80;99.90
26990;DHT22;14537;47.788;11.858;2022-09-01T01:47:44;13.80;99.90
26990;DHT22;14537;47.788;11.858;2022-09-01T01:50:12;13.70;99.90
26990;DHT22;14537;47.788;11.858;2022-09-01T01:52:39;13.70;99.90
26990;DHT22;14537;47.788;11.858;2022-09-01T01:55:06;13.70;99.90
26990;DHT22;14537;47.788;11.858;2022-09-01T01:57:40;13.70;99.90
26990;DHT22;14537;47.788;11.858;2022-09-01T02:00:19;13.60;99.90
26990;DHT22;14537;47.788;11.858;2022-09-01T02:02:46;13.70;99.90
26990;DHT22;14537;47.788;11.858;2022-09-01T02:05:17;13.70;99.90
26990;DHT22;14537;47.788;11.858;2022-09-01T02:07:46;13.70;99.90
26990;DHT22;14537;47.788;11.858;2022-09-01T02:10:12;13.70;99.90
26990;DHT22;14537;47.788;11.858;2022-09-01T02:12:38;13.70;99.90
26990;DHT22;14537;47.788;11.858;2022-09-01T02:15:07;13.60;99.90
26990;DHT22;14537;47.788;11.858;2022-09-01T02:17:33;13.60;99.90
26990;DHT22;14537;47.788;11.858;2022-09-01T02:19:58;13.60;99.90
26990;DHT22;14537;47.788;11.858;2022-09-01T02:22:24;13.60;99.90
26990;DHT22;14537;47.788;11.858;2022-09-01T02:24:50;13.60;99.90
26990;DHT22;14537;47.788;11.858;2022-09-01T02:27:16;13.60;99.90
26990;DHT22;14537;47.788;11.858;2022-09-01T02:29:46;13.60;99.90
26990;DHT22;14537;47.788;11.858;2022-09-01T02:32:11;13.50;99.90
26990;DHT22;14537;47.788;11.858;2022-09-01T02:34:37;13.50;99.90
26990;DHT22;14537;47.788;11.858;2022-09-01T02:37:04;13.50;99.90
26990;DHT22;14537;47.788;11.858;2022-09-01T02:39:30;13.50;99.90
26990;DHT22;14537;47.788;11.858;2022-09-01T02:41:59;13.50;99.90
26990;DHT22;14537;47.788;11.858;2022-09-01T02:44:25;13.50;99.90
26990;DHT22;14537;47.788;11.858;2022-09-01T02:46:53;13.50;99.90
26990;DHT22;14537;47.788;11.858;2022-09-01T02:49:20;13.50;99.90
26990;DHT22;14537;47.788;11.858;2022-09-01T02:51:54;13.50;99.90
26990;DHT22;14537;47.788;11.858;2022-09-01T02:54:24;13.50;99.90
26990;DHT22;14537;47.788;11.858;2022-09-01T02:56:50;13.50;99.90
26990;DHT22;14537;47.788;11.858;2022-09-01T02:59:19;13.50;99.90
26990;DHT22;14537;47.788;11.858;2022-09-01T03:01:46;13.50;99.90
26990;DHT22;14537;47.788;11.858;2022-09-01T03:04:12;13.50;99.90
26990;DHT22;14537;47.788;11.858;2022-09-01T03:06:38;13.50;99.90
26990;DHT22;14537;47.788;11.858;2022-09-01T03:09:06;13.40;99.90
26990;DHT22;14537;47.788;11.858;2022-09-01T03:11:33;13.40;99.90
26990;DHT22;14537;47.788;11.858;2022-09-01T03:14:00;13.40;99.90
26990;DHT22;14537;47.788;11.858;2022-09-01T03:16:26;13.50;99.90
26990;DHT22;14537;47.788;11.858;2022-09-01T03:18:51;13.50;99.90
26990;DHT22;14537;47.788;11.858;2022-09-01T03:21:17;13.50;99.90
26990;DHT22;14537;47.788;11.858;2022-09-01T03:23:43;13.40;99.90
26990;DHT22;14537;47.788;11.858;2022-09-01T03:26:09;13.40;99.90
26990;DHT22;14537;47.788;11.858;2022-09-01T03:28:34;13.40;99.90
26990;DHT22;14537;47.788;11.858;2022-09-01T03:31:01;13.40;99.90
26990;DHT22;14537;47.788;11.858;2022-09-01T03:33:27;13.50;99.90
26990;DHT22;14537;47.788;11.858;2022-09-01T03:35:53;13.40;99.90
26990;DHT22;14537;47.788;11.858;2022-09-01T03:38:19;13.40;99.90
26990;DHT22;14537;47.788;11.858;2022-09-01T03:40:53;13.40;99.90
26990;DHT22;14537;47.788;11.858;2022-09-01T03:43:19;13.40;99.90
26990;DHT22;14537;47.788;11.858;2022-09-01T03:45:47;13.30;99.90
26990;DHT22;14537;47.788;11.858;2022-09-01T03:48:13;13.30;99.90
26990;DHT22;14537;47.788;11.858;2022-09-01T03:50:42;13.30;99.90
26990;DHT22;14537;47.788;11.858;2022-09-01T03:53:12;13.20;99.90
26990;DHT22;14537;47.788;11.858;2022-09-01T03:55:38;13.20;99.90
26990;DHT22;14537;47.788;11.858;2022-09-01T03:58:06;13.20;99.90
26990;DHT22;14537;47.788;11.858;2022-09-01T04:00:40;13.20;99.90
26990;DHT22;14537;47.788;11.858;2022-09-01T04:03:07;13.20;99.90
26990;DHT22;14537;47.788;11.858;2022-09-01T04:05:34;13.20;99.90
26990;DHT22;14537;47.788;11.858;2022-09-01T04:08:01;13.20;99.90
26990;DHT22;14537;47.788;11.858;2022-09-01T04:10:34;13.20;99.90
26990;DHT22;14537;47.788;11.858;2022-09-01T04:13:02;13.20;99.90
26990;DHT22;14537;47.788;11.858;2022-09-01T04:15:29;13.20;99.90
26990;DHT22;14537;47.788;11.858;2022-09-01T04:17:56;13.10;99.90
26990;DHT22;14537;47.788;11.858;2022-09-01T04:20:36;13.10;99.90
26990;DHT22;14537;47.788;11.858;2022-09-01T04:23:27;13.10;99.90
26990;DHT22;14537;47.788;11.858;2022-09-01T04:26:06;13.10;99.90
26990;DHT22;14537;47.788;11.858;2022-09-01T04:28:38;13.10;99.90
26990;DHT22;14537;47.788;11.858;2022-09-01T04:31:06;13.10;99.90
26990;DHT22;14537;47.788;11.858;2022-09-01T04:33:34;13.10;99.90
26990;DHT22;14537;47.788;11.858;2022-09-01T04:36:17;13.00;99.90
26990;DHT22;14537;47.788;11.858;2022-09-01T04:38:44;13.00;99.90
26990;DHT22;14537;47.788;11.858;2022-09-01T04:41:10;13.00;99.90
26990;DHT22;14537;47.788;11.858;2022-09-01T04:43:45;13.00;99.90
26990;DHT22;14537;47.788;11.858;2022-09-01T04:46:12;12.90;99.90
26990;DHT22;14537;47.788;11.858;2022-09-01T04:48:38;12.90;99.90
26990;DHT22;14537;47.788;11.858;2022-09-01T04:51:07;13.00;99.90
26990;DHT22;14537;47.788;11.858;2022-09-01T04:53:38;13.00;99.90
26990;DHT22;14537;47.788;11.858;2022-09-01T04:56:06;12.90;99.90
26990;DHT22;14537;47.788;11.858;2022-09-01T04:58:34;12.90;99.90
26990;DHT22;14537;47.788;11.858;2022-09-01T05:01:01;12.90;99.90
26990;DHT22;14537;47.788;11.858;2022-09-01T05:03:30;12.90;99.90
26990;DHT22;14537;47.788;11.858;2022-09-01T05:05:56;12.90;99.90
26990;DHT22;14537;47.788;11.858;2022-09-01T05:08:24;12.90;99.90
26990;DHT22;14537;47.788;11.858;2022-09-01T05:10:50;12.90;99.90
26990;DHT22;14537;47.788;11.858;2022-09-01T05:13:20;13.00;99.90
26990;DHT22;14537;47.788;11.858;2022-09-01T05:15:58;13.00;99.90
26990;DHT22;14537;47.788;11.858;2022-09-01T05:18:24;13.00;99.90
26990;DHT22;14537;47.788;11.858;2022-09-01T05:20:50;12.90;99.90
26990;DHT22;14537;47.788;11.858;2022-09-01T05:23:17;12.90;99.90
26990;DHT22;14537;47.788;11.858;2022-09-01T05:25:47;12.90;99.90
26990;DHT22;14537;47.788;11.858;2022-09-01T05:28:14;13.00;99.90
26990;DHT22;14537;47.788;11.858;2022-09-01T05:30:40;13.00;99.90
26990;DHT22;14537;47.788;11.858;2022-09-01T05:33:06;13.00;99.90
26990;DHT22;14537;47.788;11.858;2022-09-01T05:35:36;13.10;99.90
26990;DHT22;14537;47.788;11.858;2022-09-01T05:38:02;13.10;99.90
26990;DHT22;14537;47.788;11.858;2022-09-01T05:40:29;13.10;99.90
26990;DHT22;14537;47.788;11.858;2022-09-01T05:42:54;13.10;99.90
26990;DHT22;14537;47.788;11.858;2022-09-01T05:45:20;13.10;99.90
26990;DHT22;14537;47.788;11.858;2022-09-01T05:47:47;13.10;99.90
26990;DHT22;14537;47.788;11.858;2022-09-01T05:50:13;13.10;99.90
26990;DHT22;14537;47.788;11.858;2022-09-01T05:52:40;13.10;99.90
26990;DHT22;14537;47.788;11.858;2022-09-01T05:55:08;13.10;99.90
26990;DHT22;14537;47.788;11.858;2022-09-01T05:57:34;13.10;99.90
26990;DHT22;14537;47.788;11.858;2022-09-01T06:00:04;13.10;99.90
26990;DHT22;14537;47.788;11.858;2022-09-01T06:02:35;13.10;99.90
26990;DHT22;14537;47.788;11.858;2022-09-01T06:05:02;13.10;99.90
26990;DHT22;14537;47.788;11.858;2022-09-01T06:07:27;13.10;99.90
26990;DHT22;14537;47.788;11.858;2022-09-01T06:09:53;13.20;99.90
26990;DHT22;14537;47.788;11.858;2022-09-01T06:12:19;13.10;99.90
26990;DHT22;14537;47.788;11.858;2022-09-01T06:14:48;13.10;99.90
26990;DHT22;14537;47.788;11.858;2022-09-01T06:17:15;13.10;99.90
26990;DHT22;14537;47.788;11.858;2022-09-01T06:19:41;13.20;99.90
26990;DHT22;14537;47.788;11.858;2022-09-01T06:22:07;13.20;99.90
26990;DHT22;14537;47.788;11.858;2022-09-01T06:24:35;13.20;99.90
26990;DHT22;14537;47.788;11.858;2022-09-01T06:27:01;13.20;99.90
26990;DHT22;14537;47.788;11.858;2022-09-01T06:29:26;13.30;99.90
26990;DHT22;14537;47.788;11.858;2022-09-01T06:31:52;13.20;99.90
26990;DHT22;14537;47.788;11.858;2022-09-01T06:34:18;13.30;99.90
26990;DHT22;14537;47.788;11.858;2022-09-01T06:36:44;13.30;99.90
26990;DHT22;14537;47.788;11.858;2022-09-01T06:39:10;13.30;99.90
26990;DHT22;14537;47.788;11.858;2022-09-01T06:41:44;13.40;99.90
26990;DHT22;14537;47.788;11.858;2022-09-01T06:44:13;13.40;99.90
26990;DHT22;14537;47.788;11.858;2022-09-01T06:46:39;13.50;99.90
26990;DHT22;14537;47.788;11.858;2022-09-01T06:49:04;13.50;99.90
26990;DHT22;14537;47.788;11.858;2022-09-01T06:51:30;13.60;99.90
26990;DHT22;14537;47.788;11.858;2022-09-01T06:53:56;13.60;99.90
26990;DHT22;14537;47.788;11.858;2022-09-01T06:56:24;13.70;99.90
26990;DHT22;14537;47.788;11.858;2022-09-01T06:58:52;13.90;99.90
26990;DHT22;14537;47.788;11.858;2022-09-01T07:01:19;13.90;99.90
26990;DHT22;14537;47.788;11.858;2022-09-01T07:03:49;14.00;99.90
26990;DHT22;14537;47.788;11.858;2022-09-01T07:06:15;14.00;99.90
26990;DHT22;14537;47.788;11.858;2022-09-01T07:08:42;14.00;99.90
26990;DHT22;14537;47.788;11.858;2022-09-01T07:11:18;14.00;99.90
26990;DHT22;14537;47.788;11.858;2022-09-01T07:13:48;14.00;99.90
26990;DHT22;14537;47.788;11.858;2022-09-01T07:16:15;14.00;99.90
26990;DHT22;14537;47.788;11.858;2022-09-01T07:18:48;14.00;99.90
26990;DHT22;14537;47.788;11.858;2022-09-01T07:21:15;14.10;99.90
26990;DHT22;14537;47.788;11.858;2022-09-01T07:23:41;14.10;99.90
26990;DHT22;14537;47.788;11.858;2022-09-01T07:26:08;14.10;99.90
26990;DHT22;14537;47.788;11.858;2022-09-01T07:28:34;14.20;99.90
26990;DHT22;14537;47.788;11.858;2022-09-01T07:31:00;14.20;99.90
26990;DHT22;14537;47.788;11.858;2022-09-01T07:33:26;14.20;99.90
26990;DHT22;14537;47.788;11.858;2022-09-01T07:35:54;14.10;99.90
26990;DHT22;14537;47.788;11.858;2022-09-01T07:38:22;14.10;99.90
26990;DHT22;14537;47.788;11.858;2022-09-01T07:40:47;14.00;99.90
26990;DHT22;14537;47.788;11.858;2022-09-01T07:43:16;14.10;99.90
26990;DHT22;14537;47.788;11.858;2022-09-01T07:45:44;14.10;99.90
26990;DHT22;14537;47.788;11.858;2022-09-01T07:48:15;14.20;99.90
26990;DHT22;14537;47.788;11.858;2022-09-01T07:50:42;14.30;99.90
26990;DHT22;14537;47.788;11.858;2022-09-01T07:53:12;14.50;99.90
26990;DHT22;14537;47.788;11.858;2022-09-01T07:55:39;14.60;99.90
26990;DHT22;14537;47.788;11.858;2022-09-01T07:58:08;14.70;99.90
26990;DHT22;14537;47.788;11.858;2022-09-01T08:00:34;14.80;99.90
26990;DHT22;14537;47.788;11.858;2022-09-01T08:03:01;14.80;99.90
26990;DHT22;14537;47.788;11.858;2022-09-01T08:05:26;15.00;99.90
26990;DHT22;14537;47.788;11.858;2022-09-01T08:07:53;15.10;99.90
26990;DHT22;14537;47.788;11.858;2022-09-01T08:10:19;15.20;99.90
26990;DHT22;14537;47.788;11.858;2022-09-01T08:12:45;15.30;99.90
26990;DHT22;14537;47.788;11.858;2022-09-01T08:15:10;15.30;99.90
26990;DHT22;14537;47.788;11.858;2022-09-01T08:17:36;15.40;99.90
26990;DHT22;14537;47.788;11.858;2022-09-01T08:20:02;15.50;99.90
26990;DHT22;14537;47.788;11.858;2022-09-01T08:22:28;15.50;99.90
26990;DHT22;14537;47.788;11.858;2022-09-01T08:24:53;15.50;99.90
26990;DHT22;14537;47.788;11.858;2022-09-01T08:27:19;15.50;99.90
26990;DHT22;14537;47.788;11.858;2022-09-01T08:29:45;15.50;99.90
26990;DHT22;14537;47.788;11.858;2022-09-01T08:32:10;15.50;99.90
26990;DHT22;14537;47.788;11.858;2022-09-01T08:34:36;15.60;99.90
26990;DHT22;14537;47.788;11.858;2022-09-01T08:37:03;15.60;99.90
26990;DHT22;14537;47.788;11.858;2022-09-01T08:39:29;15.70;99.90
26990;DHT22;14537;47.788;11.858;2022-09-01T08:42:07;15.80;99.90
26990;DHT22;14537;47.788;11.858;2022-09-01T08:47:11;15.90;99.90
26990;DHT22;14537;47.788;11.858;2022-09-01T08:49:38;15.90;99.90
26990;DHT22;14537;47.788;11.858;2022-09-01T08:52:07;15.90;99.90
26990;DHT22;14537;47.788;11.858;2022-09-01T08:57:05;16.00;99.90
26990;DHT22;14537;47.788;11.858;2022-09-01T08:59:30;15.90;99.90
26990;DHT22;14537;47.788;11.858;2022-09-01T09:09:56;16.10;99.90
26990;DHT22;14537;47.788;11.858;2022-09-01T09:17:46;16.10;99.90
26990;DHT22;14537;47.788;11.858;2022-09-01T09:20:13;16.20;99.90
26990;DHT22;14537;47.788;11.858;2022-09-01T09:22:39;16.40;99.90
26990;DHT22;14537;47.788;11.858;2022-09-01T09:27:33;16.80;99.90
26990;DHT22;14537;47.788;11.858;2022-09-01T09:30:04;16.90;99.90
26990;DHT22;14537;47.788;11.858;2022-09-01T09:37:43;17.20;99.90
26990;DHT22;14537;47.788;11.858;2022-09-01T09:40:13;17.20;99.90
26990;DHT22;14537;47.788;11.858;2022-09-01T09:42:41;17.30;99.90
26990;DHT22;14537;47.788;11.858;2022-09-01T09:45:17;17.40;99.90
26990;DHT22;14537;47.788;11.858;2022-09-01T09:47:45;17.40;99.90
26990;DHT22;14537;47.788;11.858;2022-09-01T09:52:36;17.40;99.90
26990;DHT22;14537;47.788;11.858;2022-09-01T09:55:21;17.30;99.90
26990;DHT22;14537;47.788;11.858;2022-09-01T09:57:47;17.30;99.90
26990;DHT22;14537;47.788;11.858;2022-09-01T10:02:42;17.20;99.90
26990;DHT22;14537;47.788;11.858;2022-09-01T10:07:46;17.30;99.90
26990;DHT22;14537;47.788;11.858;2022-09-01T10:10:30;17.40;99.90
26990;DHT22;14537;47.788;11.858;2022-09-01T10:12:56;17.30;99.90
26990;DHT22;14537;47.788;11.858;2022-09-01T10:15:23;17.20;99.90
26990;DHT22;14537;47.788;11.858;2022-09-01T10:17:49;17.30;99.90
26990;DHT22;14537;47.788;11.858;2022-09-01T10:20:24;17.20;99.90
26990;DHT22;14537;47.788;11.858;2022-09-01T10:22:50;17.20;99.90
26990;DHT22;14537;47.788;11.858;2022-09-01T10:25:20;17.10;99.90
26990;DHT22;14537;47.788;11.858;2022-09-01T10:27:48;17.00;99.90
26990;DHT22;14537;47.788;11.858;2022-09-01T10:30:15;16.90;99.90
26990;DHT22;14537;47.788;11.858;2022-09-01T10:35:07;17.10;99.90
26990;DHT22;14537;47.788;11.858;2022-09-01T10:37:35;17.10;99.90
26990;DHT22;14537;47.788;11.858;2022-09-01T10:40:11;17.10;99.90
26990;DHT22;14537;47.788;11.858;2022-09-01T10:42:37;17.10;99.90
26990;DHT22;14537;47.788;11.858;2022-09-01T10:45:03;17.10;99.90
26990;DHT22;14537;47.788;11.858;2022-09-01T10:47:30;17.20;99.90
26990;DHT22;14537;47.788;11.858;2022-09-01T10:55:27;17.70;99.90
26990;DHT22;14537;47.788;11.858;2022-09-01T11:00:43;18.20;99.90
26990;DHT22;14537;47.788;11.858;2022-09-01T11:05:57;18.20;99.90
26990;DHT22;14537;47.788;11.858;2022-09-01T11:13:33;17.90;99.90
26990;DHT22;14537;47.788;11.858;2022-09-01T11:18:45;17.70;99.90
26990;DHT22;14537;47.788;11.858;2022-09-01T11:21:15;17.80;99.90
26990;DHT22;14537;47.788;11.858;2022-09-01T11:23:42;18.00;99.90
26990;DHT22;14537;47.788;11.858;2022-09-01T11:31:56;18.90;99.90
26990;DHT22;14537;47.788;11.858;2022-09-01T11:34:22;19.30;99.90
26990;DHT22;14537;47.788;11.858;2022-09-01T11:36:54;19.30;99.90
26990;DHT22;14537;47.788;11.858;2022-09-01T11:39:23;19.00;99.90
26990;DHT22;14537;47.788;11.858;2022-09-01T11:41:58;18.60;99.90
26990;DHT22;14537;47.788;11.858;2022-09-01T11:47:04;18.40;99.90
26990;DHT22;14537;47.788;11.858;2022-09-01T11:49:34;18.70;99.90
26990;DHT22;14537;47.788;11.858;2022-09-01T11:52:01;18.90;99.90
26990;DHT22;14537;47.788;11.858;2022-09-01T11:54:28;18.80;99.90
26990;DHT22;14537;47.788;11.858;2022-09-01T11:56:54;18.80;99.90
26990;DHT22;14537;47.788;11.858;2022-09-01T12:02:48;18.60;99.90
26990;DHT22;14537;47.788;11.858;2022-09-01T12:05:22;18.60;99.90
26990;DHT22;14537;47.788;11.858;2022-09-01T12:07:50;18.50;99.90
26990;DHT22;14537;47.788;11.858;2022-09-01T12:10:27;18.50;99.90
26990;DHT22;14537;47.788;11.858;2022-09-01T12:15:25;19.00;99.90
26990;DHT22;14537;47.788;11.858;2022-09-01T12:17:52;19.50;99.90
26990;DHT22;14537;47.788;11.858;2022-09-01T12:20:36;19.80;99.90
26990;DHT22;14537;47.788;11.858;2022-09-01T12:25:50;19.80;99.90
26990;DHT22;14537;47.788;11.858;2022-09-01T12:28:16;19.50;99.90
26990;DHT22;14537;47.788;11.858;2022-09-01T12:30:41;19.40;99.90
26990;DHT22;14537;47.788;11.858;2022-09-01T12:33:10;19.50;99.90
26990;DHT22;14537;47.788;11.858;2022-09-01T12:35:38;19.50;99.90
26990;DHT22;14537;47.788;11.858;2022-09-01T12:40:44;19.20;99.90
26990;DHT22;14537;47.788;11.858;2022-09-01T12:43:11;19.10;99.90
26990;DHT22;14537;47.788;11.858;2022-09-01T12:48:02;19.60;99.90
26990;DHT22;14537;47.788;11.858;2022-09-01T12:52:54;19.80;99.90
26990;DHT22;14537;47.788;11.858;2022-09-01T12:55:24;20.00;99.90
26990;DHT22;14537;47.788;11.858;2022-09-01T12:57:51;20.30;99.90
26990;DHT22;14537;47.788;11.858;2022-09-01T13:02:45;19.80;99.90
26990;DHT22;14537;47.788;11.858;2022-09-01T13:07:42;19.60;99.90
26990;DHT22;14537;47.788;11.858;2022-09-01T13:10:08;19.70;99.90
26990;DHT22;14537;47.788;11.858;2022-09-01T13:12:33;20.00;99.90
26990;DHT22;14537;47.788;11.858;2022-09-01T13:15:03;20.30;99.90
26990;DHT22;14537;47.788;11.858;2022-09-01T13:17:28;20.50;99.90
26990;DHT22;14537;47.788;11.858;2022-09-01T13:19:55;20.80;99.90
26990;DHT22;14537;47.788;11.858;2022-09-01T13:22:20;21.00;99.90
26990;DHT22;14537;47.788;11.858;2022-09-01T13:24:46;21.00;99.90
26990;DHT22;14537;47.788;11.858;2022-09-01T13:27:12;21.10;99.90
26990;DHT22;14537;47.788;11.858;2022-09-01T13:29:38;21.20;99.90
26990;DHT22;14537;47.788;11.858;2022-09-01T13:32:04;21.20;99.90
26990;DHT22;14537;47.788;11.858;2022-09-01T13:34:29;21.40;99.90
26990;DHT22;14537;47.788;11.858;2022-09-01T13:36:55;21.60;99.90
26990;DHT22;14537;47.788;11.858;2022-09-01T13:39:21;21.70;99.90
26990;DHT22;14537;47.788;11.858;2022-09-01T13:41:47;21.80;99.90
26990;DHT22;14537;47.788;11.858;2022-09-01T13:44:13;21.90;99.90
26990;DHT22;14537;47.788;11.858;2022-09-01T13:46:39;22.20;99.90
26990;DHT22;14537;47.788;11.858;2022-09-01T13:49:06;22.40;99.90
26990;DHT22;14537;47.788;11.858;2022-09-01T13:51:31;22.40;99.90
26990;DHT22;14537;47.788;11.858;2022-09-01T13:53:57;22.10;99.90
26990;DHT22;14537;47.788;11.858;2022-09-01T13:56:22;22.00;99.90
26990;DHT22;14537;47.788;11.858;2022-09-01T13:58:48;21.80;99.90
26990;DHT22;14537;47.788;11.858;2022-09-01T14:01:13;21.40;99.90
26990;DHT22;14537;47.788;11.858;2022-09-01T14:03:39;21.40;99.90
26990;DHT22;14537;47.788;11.858;2022-09-01T14:06:05;21.50;99.90
26990;DHT22;14537;47.788;11.858;2022-09-01T14:08:31;21.70;99.90
26990;DHT22;14537;47.788;11.858;2022-09-01T14:10:58;21.80;99.90
26990;DHT22;14537;47.788;11.858;2022-09-01T14:13:24;21.90;99.90
26990;DHT22;14537;47.788;11.858;2022-09-01T14:15:50;22.00;99.90
26990;DHT22;14537;47.788;11.858;2022-09-01T14:18:18;22.00;99.50
26990;DHT22;14537;47.788;11.858;2022-09-01T14:20:44;21.90;99.90
26990;DHT22;14537;47.788;11.858;2022-09-01T14:23:10;21.80;99.60
26990;DHT22;14537;47.788;11.858;2022-09-01T14:25:40;22.10;99.90
26990;DHT22;14537;47.788;11.858;2022-09-01T14:28:06;22.30;99.90
26990;DHT22;14537;47.788;11.858;2022-09-01T14:30:32;22.60;99.90
26990;DHT22;14537;47.788;11.858;2022-09-01T14:33:01;22.80;99.90
26990;DHT22;14537;47.788;11.858;2022-09-01T14:35:26;23.10;99.00
26990;DHT22;14537;47.788;11.858;2022-09-01T14:37:52;23.40;97.60
26990;DHT22;14537;47.788;11.858;2022-09-01T14:40:19;23.40;98.40
26990;DHT22;14537;47.788;11.858;2022-09-01T14:42:48;22.80;98.50
26990;DHT22;14537;47.788;11.858;2022-09-01T14:45:16;22.20;98.90
26990;DHT22;14537;47.788;11.858;2022-09-01T14:47:43;21.60;99.00
26990;DHT22;14537;47.788;11.858;2022-09-01T14:50:09;21.20;99.90
26990;DHT22;14537;47.788;11.858;2022-09-01T14:52:34;21.40;99.90
26990;DHT22;14537;47.788;11.858;2022-09-01T14:55:02;21.80;99.90
26990;DHT22;14537;47.788;11.858;2022-09-01T14:57:28;22.30;99.90
26990;DHT22;14537;47.788;11.858;2022-09-01T14:59:54;22.60;99.00
26990;DHT22;14537;47.788;11.858;2022-09-01T15:02:19;22.70;99.50
26990;DHT22;14537;47.788;11.858;2022-09-01T15:04:46;22.90;99.20
26990;DHT22;14537;47.788;11.858;2022-09-01T15:07:11;23.30;98.50
26990;DHT22;14537;47.788;11.858;2022-09-01T15:09:38;23.60;97.70
26990;DHT22;14537;47.788;11.858;2022-09-01T15:12:03;23.80;97.40
26990;DHT22;14537;47.788;11.858;2022-09-01T15:14:30;24.10;96.60
26990;DHT22;14537;47.788;11.858;2022-09-01T15:16:56;24.30;94.70
26990;DHT22;14537;47.788;11.858;2022-09-01T15:19:22;24.40;94.10
26990;DHT22;14537;47.788;11.858;2022-09-01T15:21:47;24.80;94.00
26990;DHT22;14537;47.788;11.858;2022-09-01T15:24:13;25.20;91.60
26990;DHT22;14537;47.788;11.858;2022-09-01T15:26:39;25.50;90.40
26990;DHT22;14537;47.788;11.858;2022-09-01T15:29:11;25.80;91.30
26990;DHT22;14537;47.788;11.858;2022-09-01T15:31:37;26.00;90.30
26990;DHT22;14537;47.788;11.858;2022-09-01T15:34:03;26.30;89.40
26990;DHT22;14537;47.788;11.858;2022-09-01T15:36:29;26.80;86.60
26990;DHT22;14537;47.788;11.858;2022-09-01T15:38:56;27.10;84.80
26990;DHT22;14537;47.788;11.858;2022-09-01T15:41:26;27.40;82.90
26990;DHT22;14537;47.788;11.858;2022-09-01T15:43:53;27.60;81.60
26990;DHT22;14537;47.788;11.858;2022-09-01T15:46:19;27.60;80.00
26990;DHT22;14537;47.788;11.858;2022-09-01T15:48:45;28.00;79.70
26990;DHT22;14537;47.788;11.858;2022-09-01T15:53:55;28.40;77.90
26990;DHT22;14537;47.788;11.858;2022-09-01T15:56:21;28.10;75.80
26990;DHT22;14537;47.788;11.858;2022-09-01T15:58:48;27.80;74.10
26990;DHT22;14537;47.788;11.858;2022-09-01T16:01:14;27.10;74.60
26990;DHT22;14537;47.788;11.858;2022-09-01T16:03:40;26.10;74.00
26990;DHT22;14537;47.788;11.858;2022-09-01T16:06:06;25.60;77.90
26990;DHT22;14537;47.788;11.858;2022-09-01T16:08:32;25.10;78.70
26990;DHT22;14537;47.788;11.858;2022-09-01T16:10:58;24.30;78.30
26990;DHT22;14537;47.788;11.858;2022-09-01T16:13:24;23.70;80.80
26990;DHT22;14537;47.788;11.858;2022-09-01T16:15:53;23.40;83.90
26990;DHT22;14537;47.788;11.858;2022-09-01T16:21:19;23.40;83.90
26990;DHT22;14537;47.788;11.858;2022-09-01T16:23:47;23.50;85.20
26990;DHT22;14537;47.788;11.858;2022-09-01T16:26:14;23.40;86.20
26990;DHT22;14537;47.788;11.858;2022-09-01T16:28:44;23.30;84.70
26990;DHT22;14537;47.788;11.858;2022-09-01T16:31:16;23.10;85.10
26990;DHT22;14537;47.788;11.858;2022-09-01T16:33:48;22.60;87.30
26990;DHT22;14537;47.788;11.858;2022-09-01T16:36:36;21.90;86.20
26990;DHT22;14537;47.788;11.858;2022-09-01T16:44:26;21.10;90.30
26990;DHT22;14537;47.788;11.858;2022-09-01T16:49:42;20.50;91.60
26990;DHT22;14537;47.788;11.858;2022-09-01T16:52:19;20.40;91.20
26990;DHT22;14537;47.788;11.858;2022-09-01T17:00:17;20.00;92.70
26990;DHT22;14537;47.788;11.858;2022-09-01T17:10:23;19.40;94.30
26990;DHT22;14537;47.788;11.858;2022-09-01T17:12:51;19.30;94.50
26990;DHT22;14537;47.788;11.858;2022-09-01T17:18:02;19.00;95.60
26990;DHT22;14537;47.788;11.858;2022-09-01T17:20:34;18.90;95.90